Airfield :
LOGIN :

Register | Disclaimer

   EN    FR    IT 

 










Legend :    VFR   Marginal VFR   IFR   Intensive IFR   Very Intensive IFR
Visi :
Ceiling :
>= 8 km
>= 3000ft
5 to 8 km
1000 to 3000 ft
1500m to 5 km
500 to 1000 ft
800 to 1500m
200 to 500 ft
< 800m
< 200 ft
Symbols :   Thunderstorms  Fog  Heavy snow  Heavy precipitations  Wind > 20 kt
SIGMETs :     Misc.  Thunderstorms  Icing  Turbulence  Mountain Waves  Volcanic Ashes







- Airport Elevation : 584 ft
- Download approach charts


LFPV - Villacoublay Vélizy

CURRENT METAR :
  • 241300Z AUTO 03008KT 350V080 9999 SCT047 BKN056 15/04 Q1036 NOSIG

EXPIRED METARs :
  • 241230Z AUTO 05009KT 020V080 9999 FEW045 BKN056 15/04 Q1036 NOSIG
  • 241200Z AUTO 01008KT 330V060 9999 FEW045 SCT054 15/05 Q1036 NOSIG
  • 241130Z AUTO 36007KT 310V020 9999 SCT038 BKN047 14/05 Q1036 NOSIG
  • 241100Z AUTO 03005KT 340V090 9999 BKN036 BKN043 15/06 Q1036 NOSIG
  • 241030Z AUTO 05008KT 010V090 9999 SCT033 14/06 Q1036 NOSIG

Expired Forecast.
No reported NOTAMs for that airfield.



MET'MAP, your aeronautical weather chart ! - Copyright ORBIFLY December 2007 - Disclaimer

ORBIFLY MET'MAP TEAM :

Programming & Development : Alexandra Zaïnal
Concept & Development : Baudouin d'Aumeries
Co-Development & Prog : Marc-Olivier Méhu
Technical & hardware support : Manuel Goepfert

Contact : metmap@orbifly.com




SOURCES & CREDITS :

   NOAA